Time;durP1;ratioP1;P1;durP2;ratioP2;P2;SDS_P1;SDS_P2;PMS_P1;PMS_P2;Temp;Humidity;BMP_temperature;BMP_pressure;BME280_temperature;BME280_humidity;BME280_pressure;Samples;Min_cycle;Max_cycle;Signal;HPM_P1;HPM_P2
2021/12/17 00:00:56;;;;;;;90.05;25.73;;;;;;;;;;5158921;27;20038;-81
2021/12/17 00:03:33;;;;;;;100.75;26.95;;;;;;;;;;5159262;27;20099;-82
2021/12/17 00:06:13;;;;;;;95.13;26.00;;;;;;;;;;5158897;27;20087;-82
2021/12/17 00:08:41;;;;;;;115.68;27.23;;;;;;;;;;5140649;27;20440;-83
2021/12/17 00:11:08;;;;;;;85.85;25.95;;;;;;;;;;5159275;27;20450;-81
2021/12/17 00:13:35;;;;;;;99.50;26.52;;;;;;;;;;5158648;27;20107;-83
2021/12/17 00:16:11;;;;;;;77.93;22.73;;;;;;;;;;5158813;27;20095;-84
2021/12/17 00:18:50;;;;;;;87.78;24.80;;;;;;;;;;5158655;27;20043;-83
2021/12/17 00:43:52;;;;;;;63.65;18.50;;;;;;;;;;5159047;27;20109;-82
2021/12/17 00:44:18;;;;;;;64.07;20.20;;;;;;;;;;5157631;27;20042;-84
2021/12/17 00:48:51;;;;;;;67.05;18.85;;;;;;;;;;5158802;27;20064;-75
2021/12/17 00:53:57;;;;;;;49.42;15.52;;;;;;;;;;5158689;27;20102;-83
2021/12/17 00:56:23;;;;;;;58.38;17.15;;;;;;;;;;5139596;27;20054;-81
2021/12/17 00:58:49;;;;;;;50.10;15.98;;;;;;;;;;5157493;27;20061;-82
2021/12/17 01:01:16;;;;;;;49.05;15.75;;;;;;;;;;5158171;27;20046;-85
2021/12/17 01:03:43;;;;;;;49.03;15.50;;;;;;;;;;5157776;27;20082;-85
2021/12/17 01:06:09;;;;;;;;;;;;;;;;;;5158208;27;20563;-85
2021/12/17 01:08:35;;;;;;;46.30;15.32;;;;;;;;;;5158286;27;19974;-82
2021/12/17 01:11:01;;;;;;;35.15;12.35;;;;;;;;;;5157641;27;20057;-85
2021/12/17 01:13:27;;;;;;;38.85;12.23;;;;;;;;;;5158356;27;20050;-86
2021/12/17 01:15:53;;;;;;;28.15;10.00;;;;;;;;;;5157407;27;20093;-76
2021/12/17 01:18:22;;;;;;;26.75;9.48;;;;;;;;;;5158066;27;20134;-84
2021/12/17 01:36:45;;;;;;;18.85;7.40;;;;;;;;;;5156819;27;20088;-82
2021/12/17 01:42:06;;;;;;;19.63;7.55;;;;;;;;;;5163808;27;20047;-76
2021/12/17 01:44:33;;;;;;;20.00;7.05;;;;;;;;;;5146255;27;20046;-83
2021/12/17 01:46:59;;;;;;;19.35;7.10;;;;;;;;;;5160036;27;20166;-77
2021/12/17 02:00:03;;;;;;;21.17;7.22;;;;;;;;;;5156052;27;20042;-77
2021/12/17 02:02:31;;;;;;;20.80;7.07;;;;;;;;;;5156395;27;20045;-84
2021/12/17 02:04:57;;;;;;;21.75;7.55;;;;;;;;;;5156337;27;20474;-82
2021/12/17 02:07:23;;;;;;;20.75;7.75;;;;;;;;;;5155840;27;20039;-83
2021/12/17 02:12:34;;;;;;;18.50;7.05;;;;;;;;;;5156594;27;20043;-82
2021/12/17 02:28:59;;;;;;;18.70;7.43;;;;;;;;;;5137742;27;20134;-81
2021/12/17 02:31:28;;;;;;;19.40;7.38;;;;;;;;;;5137853;27;20121;-81
2021/12/17 02:33:56;;;;;;;20.75;7.88;;;;;;;;;;5155551;27;20099;-82
2021/12/17 02:36:27;;;;;;;21.27;7.65;;;;;;;;;;5155315;27;20106;-82
2021/12/17 02:39:06;;;;;;;20.92;7.75;;;;;;;;;;5155966;27;20051;-81
2021/12/17 02:47:05;;;;;;;19.15;7.65;;;;;;;;;;5155204;27;20082;-74
2021/12/17 02:49:31;;;;;;;21.52;8.48;;;;;;;;;;5155927;27;20053;-77
2021/12/17 02:51:58;;;;;;;23.23;8.82;;;;;;;;;;5155865;27;20043;-78
2021/12/17 02:54:25;;;;;;;22.05;8.15;;;;;;;;;;5155068;27;20324;-78
2021/12/17 02:56:51;;;;;;;22.30;8.60;;;;;;;;;;5119644;27;20476;-78
2021/12/17 02:59:17;;;;;;;20.85;8.27;;;;;;;;;;5155001;27;20045;-77
2021/12/17 03:01:45;;;;;;;23.65;7.85;;;;;;;;;;5155060;27;20401;-79
2021/12/17 03:04:12;;;;;;;22.00;8.20;;;;;;;;;;5154970;27;20042;-79
2021/12/17 03:06:41;;;;;;;23.13;9.07;;;;;;;;;;5137052;27;20398;-79
2021/12/17 03:09:07;;;;;;;22.27;8.60;;;;;;;;;;5136442;27;20052;-74
2021/12/17 03:11:33;;;;;;;18.77;8.23;;;;;;;;;;5154891;27;20138;-78
2021/12/17 03:13:59;;;;;;;26.52;8.80;;;;;;;;;;5154955;27;20047;-79
2021/12/17 03:16:32;;;;;;;20.90;8.20;;;;;;;;;;5154807;27;20047;-79
2021/12/17 03:24:20;;;;;;;16.90;7.35;;;;;;;;;;5136271;27;20043;-78
2021/12/17 03:26:46;;;;;;;19.15;7.55;;;;;;;;;;5154792;27;20076;-80
2021/12/17 03:29:13;;;;;;;;;;;;;;;;;;5138875;27;20038;-78
2021/12/17 03:31:39;;;;;;;19.52;8.15;;;;;;;;;;5139332;27;19919;-76
2021/12/17 03:34:18;;;;;;;20.75;8.43;;;;;;;;;;5137862;27;20431;-76
2021/12/17 03:36:48;;;;;;;18.50;7.60;;;;;;;;;;5155350;27;20058;-79
2021/12/17 03:39:15;;;;;;;18.83;7.63;;;;;;;;;;5155410;27;20099;-80
2021/12/17 03:41:48;;;;;;;23.30;8.35;;;;;;;;;;5154728;27;20158;-81
2021/12/17 03:44:14;;;;;;;23.15;7.85;;;;;;;;;;5155172;27;20047;-80
2021/12/17 03:46:40;;;;;;;23.20;8.48;;;;;;;;;;5136448;27;20126;-82
2021/12/17 03:49:06;;;;;;;20.70;8.07;;;;;;;;;;5154521;27;20103;-82
2021/12/17 03:51:36;;;;;;;21.40;7.55;;;;;;;;;;5119425;27;20146;-82
2021/12/17 03:54:02;;;;;;;22.80;7.88;;;;;;;;;;5156132;27;20060;-82
2021/12/17 03:56:28;;;;;;;24.20;8.25;;;;;;;;;;5156872;27;20039;-83
2021/12/17 03:58:57;;;;;;;21.05;8.43;;;;;;;;;;5157002;27;20046;-79
2021/12/17 04:01:23;;;;;;;22.38;7.93;;;;;;;;;;5119930;27;20157;-80
2021/12/17 04:03:49;;;;;;;24.92;8.82;;;;;;;;;;5136560;27;20043;-77
2021/12/17 04:06:16;;;;;;;21.95;8.27;;;;;;;;;;5136154;27;20179;-75
2021/12/17 04:08:42;;;;;;;21.92;8.52;;;;;;;;;;5155117;27;20042;-80
2021/12/17 04:11:16;;;;;;;22.30;8.52;;;;;;;;;;5154474;27;20189;-82
2021/12/17 04:13:42;;;;;;;26.65;8.88;;;;;;;;;;5155164;27;20086;-81
2021/12/17 04:16:10;;;;;;;25.42;8.88;;;;;;;;;;5154624;27;20107;-84
2021/12/17 04:18:38;;;;;;;24.20;9.48;;;;;;;;;;5154496;27;20078;-81
2021/12/17 04:21:09;;;;;;;29.00;9.27;;;;;;;;;;5154153;27;20587;-82
2021/12/17 04:23:35;;;;;;;26.88;9.50;;;;;;;;;;5154842;27;20100;-83
2021/12/17 04:26:01;;;;;;;30.67;10.88;;;;;;;;;;5154229;27;20121;-81
2021/12/17 04:28:27;;;;;;;38.35;11.10;;;;;;;;;;5154580;27;20043;-84
2021/12/17 04:30:54;;;;;;;39.03;12.20;;;;;;;;;;5154285;27;20086;-81
2021/12/17 04:33:20;;;;;;;32.20;12.77;;;;;;;;;;5155527;27;20056;-84
2021/12/17 04:35:46;;;;;;;41.13;14.63;;;;;;;;;;5139343;27;20057;-83
2021/12/17 04:38:15;;;;;;;41.60;14.93;;;;;;;;;;5122613;27;20134;-83
2021/12/17 04:40:43;;;;;;;38.03;14.50;;;;;;;;;;5158352;27;20166;-82
2021/12/17 04:45:42;;;;;;;42.05;15.15;;;;;;;;;;5157622;27;20047;-84
2021/12/17 04:59:14;;;;;;;42.22;17.13;;;;;;;;;;5157429;27;20101;-78
2021/12/17 05:01:41;;;;;;;50.55;18.10;;;;;;;;;;5157722;27;20085;-80
2021/12/17 05:04:07;;;;;;;48.50;18.85;;;;;;;;;;5158052;27;20043;-80
2021/12/17 05:06:33;;;;;;;37.42;16.70;;;;;;;;;;5157176;27;20050;-83
2021/12/17 05:09:07;;;;;;;54.97;17.92;;;;;;;;;;5139100;27;20133;-81
2021/12/17 05:19:49;;;;;;;49.78;19.70;;;;;;;;;;5157806;27;20366;-82
2021/12/17 05:22:15;;;;;;;50.35;19.98;;;;;;;;;;5158049;27;20367;-81
2021/12/17 05:24:41;;;;;;;44.28;17.65;;;;;;;;;;5157012;27;20488;-82
2021/12/17 05:27:07;;;;;;;;;;;;;;;;;;5158102;27;20497;-81
2021/12/17 05:29:33;;;;;;;48.05;18.88;;;;;;;;;;5144072;27;20013;-81
2021/12/17 05:31:59;;;;;;;53.03;19.00;;;;;;;;;;5142835;27;20084;-81
2021/12/17 05:34:25;;;;;;;55.67;19.05;;;;;;;;;;5158535;27;20053;-73
2021/12/17 05:36:51;;;;;;;57.28;19.08;;;;;;;;;;5138214;27;20049;-79
2021/12/17 05:39:18;;;;;;;54.58;18.60;;;;;;;;;;5138395;27;20528;-81
2021/12/17 05:41:45;;;;;;;54.70;18.25;;;;;;;;;;5156437;27;20127;-78
2021/12/17 05:44:14;;;;;;;53.85;18.55;;;;;;;;;;5138139;27;20043;-79
2021/12/17 05:46:49;;;;;;;50.60;18.00;;;;;;;;;;5156244;27;20051;-78
2021/12/17 05:49:19;;;;;;;58.78;20.10;;;;;;;;;;5156924;27;20382;-79
2021/12/17 05:51:45;;;;;;;48.75;18.50;;;;;;;;;;5156141;27;20042;-79
2021/12/17 05:54:11;;;;;;;;;;;;;;;;;;5156939;27;20042;-81
2021/12/17 05:56:38;;;;;;;51.28;18.77;;;;;;;;;;5137844;27;20403;-79
2021/12/17 05:59:05;;;;;;;52.60;17.63;;;;;;;;;;5156108;27;20043;-79
2021/12/17 06:01:32;;;;;;;50.88;17.55;;;;;;;;;;5156425;27;20467;-80
2021/12/17 06:03:58;;;;;;;60.03;19.52;;;;;;;;;;5156019;27;20103;-79
2021/12/17 06:06:31;;;;;;;56.85;19.48;;;;;;;;;;5137589;27;20129;-79
2021/12/17 06:08:57;;;;;;;47.50;18.10;;;;;;;;;;5155887;27;20134;-79
2021/12/17 06:11:23;;;;;;;59.53;19.38;;;;;;;;;;5137245;27;20089;-79
2021/12/17 06:13:49;;;;;;;54.15;18.15;;;;;;;;;;5155751;27;20515;-77
2021/12/17 06:16:16;;;;;;;48.10;17.27;;;;;;;;;;5155791;27;20533;-79
2021/12/17 06:18:42;;;;;;;63.20;18.98;;;;;;;;;;5155653;27;20043;-78
2021/12/17 06:21:08;;;;;;;54.35;17.55;;;;;;;;;;5137407;27;20050;-79
2021/12/17 06:23:34;;;;;;;61.47;18.15;;;;;;;;;;5137188;27;20050;-78
2021/12/17 06:26:00;;;;;;;53.65;16.50;;;;;;;;;;5155650;27;20123;-77
2021/12/17 06:28:26;;;;;;;55.40;17.08;;;;;;;;;;5137154;27;20045;-78
2021/12/17 06:30:52;;;;;;;62.80;18.85;;;;;;;;;;5156175;27;20035;-80
2021/12/17 06:33:18;;;;;;;54.75;17.20;;;;;;;;;;5155522;27;20050;-80
2021/12/17 06:35:44;;;;;;;52.30;18.35;;;;;;;;;;5155361;27;20043;-78
2021/12/17 06:38:10;;;;;;;51.20;17.23;;;;;;;;;;5155358;27;20046;-77
2021/12/17 06:40:36;;;;;;;53.65;15.50;;;;;;;;;;5155321;27;20049;-78
2021/12/17 06:43:03;;;;;;;61.88;18.17;;;;;;;;;;5155297;27;20042;-79
2021/12/17 06:48:14;;;;;;;60.55;19.02;;;;;;;;;;5155234;27;20055;-78
2021/12/17 07:21:07;;;;;;;56.90;17.58;;;;;;;;;;5155413;27;20061;-79
2021/12/17 07:30:35;;;;;;;50.63;16.95;;;;;;;;;;5156393;27;20053;-78
2021/12/17 07:39:35;;;;;;;44.80;16.38;;;;;;;;;;5154658;27;20053;-76
2021/12/17 07:42:02;;;;;;;;;;;;;;;;;;5136039;27;20168;-78
2021/12/17 07:44:28;;;;;;;56.60;17.48;;;;;;;;;;5154077;27;19919;-79
2021/12/17 07:46:54;;;;;;;51.40;17.83;;;;;;;;;;5153893;27;20086;-78
2021/12/17 07:49:20;;;;;;;43.28;17.10;;;;;;;;;;5154131;27;20049;-78
2021/12/17 07:51:47;;;;;;;51.75;17.17;;;;;;;;;;5153845;27;20043;-78
2021/12/17 07:54:13;;;;;;;43.70;16.73;;;;;;;;;;5118758;27;20066;-77
2021/12/17 07:56:39;;;;;;;48.22;17.50;;;;;;;;;;5136026;27;20070;-78
2021/12/17 07:59:09;;;;;;;53.67;18.08;;;;;;;;;;5153318;27;20054;-78
2021/12/17 08:01:36;;;;;;;51.45;17.88;;;;;;;;;;5135210;27;20386;-76
2021/12/17 08:04:05;;;;;;;53.88;19.95;;;;;;;;;;5153447;27;20082;-77
2021/12/17 08:06:32;;;;;;;46.38;17.42;;;;;;;;;;5153325;27;20045;-77
2021/12/17 08:08:59;;;;;;;56.88;18.92;;;;;;;;;;5156621;27;20129;-77
2021/12/17 08:11:25;;;;;;;;;;;;;;;;;;5156986;27;20054;-77
2021/12/17 08:13:53;;;;;;;55.50;19.50;;;;;;;;;;5156535;27;20381;-77
2021/12/17 08:27:07;;;;;;;59.88;19.90;;;;;;;;;;5138399;27;20042;-76
2021/12/17 08:32:00;;;;;;;47.58;18.30;;;;;;;;;;5156106;27;20378;-76
2021/12/17 08:34:27;;;;;;;49.40;18.83;;;;;;;;;;5137768;27;20050;-77
2021/12/17 08:36:53;;;;;;;45.55;17.77;;;;;;;;;;5137480;27;20524;-77
2021/12/17 08:39:19;;;;;;;52.80;20.83;;;;;;;;;;5156123;27;20102;-76
2021/12/17 08:41:51;;;;;;;46.25;19.05;;;;;;;;;;5156376;27;20118;-76
2021/12/17 08:44:17;;;;;;;49.42;19.95;;;;;;;;;;5156491;27;20095;-76
2021/12/17 08:46:43;;;;;;;51.33;21.35;;;;;;;;;;5156256;27;20043;-76
2021/12/17 08:49:10;;;;;;;51.33;19.13;;;;;;;;;;5156714;27;20061;-76
2021/12/17 08:51:36;;;;;;;47.42;19.25;;;;;;;;;;5156713;27;20038;-76
2021/12/17 08:54:02;;;;;;;;;;;;;;;;;;5156314;27;20131;-75
2021/12/17 08:56:35;;;;;;;48.78;19.73;;;;;;;;;;5156428;27;20331;-76
2021/12/17 08:59:03;;;;;;;41.20;18.52;;;;;;;;;;5156194;27;20373;-75
2021/12/17 09:01:29;;;;;;;49.80;22.17;;;;;;;;;;5155631;27;20043;-76
2021/12/17 09:03:55;;;;;;;47.40;21.83;;;;;;;;;;5137479;27;20087;-77
2021/12/17 09:06:26;;;;;;;36.53;15.98;;;;;;;;;;5155602;27;20039;-76
2021/12/17 09:08:56;;;;;;;43.17;16.50;;;;;;;;;;5156090;27;20413;-75
2021/12/17 09:11:26;;;;;;;45.10;23.25;;;;;;;;;;5136476;27;20117;-74
2021/12/17 09:13:53;;;;;;;38.05;16.73;;;;;;;;;;5137044;27;20537;-74
2021/12/17 09:16:20;;;;;;;49.80;26.10;;;;;;;;;;5155524;27;20068;-75
2021/12/17 09:18:50;;;;;;;42.72;19.48;;;;;;;;;;5154501;27;20481;-75
2021/12/17 09:21:17;;;;;;;45.47;18.60;;;;;;;;;;5155511;27;20049;-75
2021/12/17 09:23:44;;;;;;;40.47;17.02;;;;;;;;;;5156045;27;20467;-75
2021/12/17 09:26:11;;;;;;;38.42;18.02;;;;;;;;;;5137647;27;20087;-75
2021/12/17 09:28:38;;;;;;;38.55;18.58;;;;;;;;;;5154866;27;20554;-76
2021/12/17 09:31:05;;;;;;;44.60;22.33;;;;;;;;;;5155636;27;20043;-74
2021/12/17 09:33:32;;;;;;;42.55;21.00;;;;;;;;;;5155093;27;20043;-74
2021/12/17 09:35:57;;;;;;;;;;;;;;;;;;5155498;27;20125;-73
2021/12/17 09:38:24;;;;;;;45.67;16.60;;;;;;;;;;5155054;27;20015;-73
2021/12/17 09:40:50;;;;;;;39.67;16.50;;;;;;;;;;5154995;27;20038;-75
2021/12/17 09:43:17;;;;;;;66.38;39.88;;;;;;;;;;5154772;27;20078;-75
2021/12/17 09:45:44;;;;;;;;;;;;;;;;;;5155562;27;20042;-75
2021/12/17 09:48:12;;;;;;;42.08;15.80;;;;;;;;;;5154826;27;19915;-74
2021/12/17 09:50:38;;;;;;;48.08;17.38;;;;;;;;;;5154986;27;20042;-74
2021/12/17 09:53:04;;;;;;;45.30;16.98;;;;;;;;;;5155355;27;20073;-74
2021/12/17 09:55:30;;;;;;;42.03;17.27;;;;;;;;;;5154827;27;20177;-74
2021/12/17 09:57:56;;;;;;;43.42;18.77;;;;;;;;;;5154659;27;20038;-74
2021/12/17 10:00:23;;;;;;;33.03;15.20;;;;;;;;;;5154570;27;20125;-73
2021/12/17 10:02:50;;;;;;;38.75;16.70;;;;;;;;;;5154717;27;20046;-74
2021/12/17 10:05:18;;;;;;;35.63;13.05;;;;;;;;;;5136111;27;20035;-75
2021/12/17 10:07:44;;;;;;;33.25;15.18;;;;;;;;;;5136169;27;20046;-74
2021/12/17 10:10:12;;;;;;;54.30;17.45;;;;;;;;;;5154273;27;20050;-75
2021/12/17 10:12:39;;;;;;;36.90;13.27;;;;;;;;;;5136137;27;20069;-76
2021/12/17 10:15:10;;;;;;;33.20;13.80;;;;;;;;;;5154760;27;20046;-74
2021/12/17 10:17:37;;;;;;;35.28;15.18;;;;;;;;;;5154303;27;20559;-75
2021/12/17 10:20:05;;;;;;;35.65;13.07;;;;;;;;;;5154190;27;20062;-75
2021/12/17 10:22:31;;;;;;;31.73;13.05;;;;;;;;;;5135861;27;20042;-75
2021/12/17 10:24:59;;;;;;;30.92;12.20;;;;;;;;;;5154623;27;20133;-76
2021/12/17 10:27:29;;;;;;;31.80;12.27;;;;;;;;;;5154108;27;20065;-76
2021/12/17 10:29:55;;;;;;;37.80;13.38;;;;;;;;;;5153623;27;20081;-76
2021/12/17 10:32:23;;;;;;;30.48;12.63;;;;;;;;;;5117856;27;20111;-76
2021/12/17 10:35:04;;;;;;;31.98;13.02;;;;;;;;;;5135686;27;20049;-77
2021/12/17 10:37:34;;;;;;;35.45;13.13;;;;;;;;;;5135471;27;20038;-76
2021/12/17 10:40:00;;;;;;;49.85;15.65;;;;;;;;;;5154136;27;20099;-73
2021/12/17 10:42:33;;;;;;;37.47;14.15;;;;;;;;;;5154052;27;20052;-76
2021/12/17 10:45:03;;;;;;;37.70;16.77;;;;;;;;;;5153952;27;20054;-80
2021/12/17 10:47:33;;;;;;;40.05;15.38;;;;;;;;;;5154194;27;20338;-77
2021/12/17 10:50:02;;;;;;;33.42;11.90;;;;;;;;;;5153848;27;20082;-80
2021/12/17 10:52:36;;;;;;;32.65;12.93;;;;;;;;;;5154374;27;20048;-80
2021/12/17 10:55:07;;;;;;;37.30;13.48;;;;;;;;;;5153840;27;20039;-79
2021/12/17 10:57:33;;;;;;;34.88;13.63;;;;;;;;;;5153877;27;20041;-81
2021/12/17 11:00:01;;;;;;;22.17;8.98;;;;;;;;;;5134855;27;20393;-87
2021/12/17 11:02:33;;;;;;;28.73;12.13;;;;;;;;;;5118145;27;20065;-85
2021/12/17 11:05:09;;;;;;;25.35;11.18;;;;;;;;;;5154317;27;20046;-81
2021/12/17 11:07:38;;;;;;;27.48;12.88;;;;;;;;;;5135269;27;20167;-79
2021/12/17 11:10:04;;;;;;;28.40;10.68;;;;;;;;;;5136086;27;20487;-75
2021/12/17 11:12:38;;;;;;;25.15;10.32;;;;;;;;;;5155437;27;20050;-82
2021/12/17 11:15:09;;;;;;;21.67;8.65;;;;;;;;;;5158788;27;20102;-73
2021/12/17 11:17:35;;;;;;;21.08;9.40;;;;;;;;;;5160812;27;20043;-83
2021/12/17 11:20:09;;;;;;;20.83;8.68;;;;;;;;;;5165998;27;20125;-84
2021/12/17 11:22:40;;;;;;;24.00;8.45;;;;;;;;;;5135790;27;20038;-85
2021/12/17 11:25:07;;;;;;;23.75;9.38;;;;;;;;;;5154525;27;20091;-75
2021/12/17 11:27:33;;;;;;;20.10;8.77;;;;;;;;;;5155685;27;20174;-88
2021/12/17 11:30:00;;;;;;;25.08;10.10;;;;;;;;;;5137590;27;20085;-92
2021/12/17 11:32:27;;;;;;;22.00;9.40;;;;;;;;;;5136985;27;20049;-90
2021/12/17 11:34:53;;;;;;;24.92;11.80;;;;;;;;;;5155542;27;20047;-84
2021/12/17 11:37:20;;;;;;;22.42;10.43;;;;;;;;;;5154713;27;20131;-92
2021/12/17 11:39:58;;;;;;;21.48;9.48;;;;;;;;;;5155172;27;20566;-91
2021/12/17 11:42:25;;;;;;;24.98;9.20;;;;;;;;;;5157433;27;20051;-95
2021/12/17 11:45:41;;;;;;;25.30;10.52;;;;;;;;;;5141339;27;20046;-93
2021/12/17 11:47:43;;;;;;;22.65;9.80;;;;;;;;;;5141209;27;20091;-92
2021/12/17 11:50:10;;;;;;;18.40;9.13;;;;;;;;;;5159808;27;20047;-76
2021/12/17 11:52:36;;;;;;;21.17;10.40;;;;;;;;;;5160558;27;20039;-92
2021/12/17 11:55:21;;;;;;;22.35;9.70;;;;;;;;;;5159150;27;20109;-92
2021/12/17 11:57:47;;;;;;;22.17;9.55;;;;;;;;;;5138627;27;20054;-89
2021/12/17 12:00:14;;;;;;;27.27;10.73;;;;;;;;;;5139359;27;20363;-82
2021/12/17 12:02:47;;;;;;;25.15;9.63;;;;;;;;;;5157998;27;20046;-88
2021/12/17 12:05:40;;;;;;;21.73;8.88;;;;;;;;;;5157973;27;20122;-89
2021/12/17 12:08:47;;;;;;;20.55;8.50;;;;;;;;;;5158510;27;20391;-85
2021/12/17 12:11:26;;;;;;;20.85;9.55;;;;;;;;;;5071910;28;20506;-83
2021/12/17 12:13:53;;;;;;;19.05;8.07;;;;;;;;;;5072448;28;20552;-82
2021/12/17 12:16:19;;;;;;;19.70;9.07;;;;;;;;;;5121562;27;20062;-84
2021/12/17 12:18:45;;;;;;;22.05;10.05;;;;;;;;;;5157938;27;20046;-84
2021/12/17 12:21:15;;;;;;;18.70;9.43;;;;;;;;;;5160911;27;20090;-79
2021/12/17 12:23:42;;;;;;;21.38;9.00;;;;;;;;;;5158218;27;20115;-87
2021/12/17 12:26:13;;;;;;;19.67;9.10;;;;;;;;;;5138210;27;20046;-86
2021/12/17 12:28:45;;;;;;;21.55;10.52;;;;;;;;;;5140385;27;20043;-85
2021/12/17 12:31:17;;;;;;;23.13;10.00;;;;;;;;;;5138232;27;20364;-87
2021/12/17 12:34:05;;;;;;;24.55;10.93;;;;;;;;;;5156639;27;20133;-82
2021/12/17 12:36:51;;;;;;;23.23;10.27;;;;;;;;;;5156964;27;20123;-85
2021/12/17 12:39:19;;;;;;;17.65;9.07;;;;;;;;;;5138228;27;20072;-89
2021/12/17 12:41:56;;;;;;;25.60;10.50;;;;;;;;;;5157421;27;20047;-92
2021/12/17 12:44:43;;;;;;;20.08;9.80;;;;;;;;;;5156080;27;20066;-91
2021/12/17 12:47:10;;;;;;;20.83;9.23;;;;;;;;;;5144046;27;20050;-90
2021/12/17 12:50:00;;;;;;;20.83;10.48;;;;;;;;;;5161909;27;20047;-91
2021/12/17 12:52:26;;;;;;;20.83;9.35;;;;;;;;;;5141876;27;20053;-95
2021/12/17 12:54:53;;;;;;;20.65;9.38;;;;;;;;;;5141763;27;20133;-92
2021/12/17 12:57:30;;;;;;;20.52;9.30;;;;;;;;;;5158956;27;20085;-87
2021/12/17 13:00:00;;;;;;;18.90;9.75;;;;;;;;;;5159441;27;20376;-89
2021/12/17 13:02:27;;;;;;;19.50;9.30;;;;;;;;;;5171374;27;20046;-95
2021/12/17 13:04:57;;;;;;;19.20;9.93;;;;;;;;;;5175628;27;20042;-89
2021/12/17 13:07:35;;;;;;;21.13;9.90;;;;;;;;;;5174946;27;20041;-88
2021/12/17 13:10:12;;;;;;;19.55;9.82;;;;;;;;;;5160377;27;20054;-92
2021/12/17 13:12:38;;;;;;;21.02;9.10;;;;;;;;;;5156188;27;20095;-87
2021/12/17 13:15:04;;;;;;;;;;;;;;;;;;5156005;27;20054;-86
2021/12/17 13:20:05;;;;;;;19.63;9.77;;;;;;;;;;5136994;27;19926;-79
2021/12/17 13:20:54;;;;;;;18.67;8.45;;;;;;;;;;5137808;27;20051;-83
2021/12/17 13:23:22;;;;;;;18.15;8.32;;;;;;;;;;5156259;27;20039;-82
2021/12/17 13:26:00;;;;;;;17.50;8.25;;;;;;;;;;5155327;27;20450;-84
2021/12/17 13:28:26;;;;;;;16.27;8.63;;;;;;;;;;5155384;27;20038;-81
2021/12/17 13:30:56;;;;;;;18.35;8.82;;;;;;;;;;5155362;27;20118;-81
2021/12/17 13:33:34;;;;;;;18.05;8.07;;;;;;;;;;5136940;27;20042;-80
2021/12/17 13:36:01;;;;;;;15.68;7.20;;;;;;;;;;5137240;27;20115;-80
2021/12/17 13:38:32;;;;;;;16.85;8.00;;;;;;;;;;5155002;27;20042;-80
2021/12/17 13:40:59;;;;;;;16.98;8.02;;;;;;;;;;5155035;27;20051;-79
2021/12/17 13:43:29;;;;;;;16.27;8.50;;;;;;;;;;5136712;27;20074;-79
2021/12/17 13:45:58;;;;;;;17.02;8.20;;;;;;;;;;5154909;27;20054;-79
2021/12/17 13:48:25;;;;;;;20.13;8.80;;;;;;;;;;5154267;27;20409;-79
2021/12/17 13:50:51;;;;;;;;;;;;;;;;;;5155186;27;20043;-79
2021/12/17 13:53:17;;;;;;;19.00;8.93;;;;;;;;;;5154780;27;19977;-80
2021/12/17 13:55:45;;;;;;;19.33;8.38;;;;;;;;;;5136975;27;20047;-79
2021/12/17 13:58:13;;;;;;;18.42;7.85;;;;;;;;;;5154294;27;20070;-78
2021/12/17 14:00:44;;;;;;;15.95;8.25;;;;;;;;;;5154379;27;20102;-78
2021/12/17 14:03:11;;;;;;;18.77;8.13;;;;;;;;;;5135856;27;20049;-78
2021/12/17 14:05:43;;;;;;;15.55;7.50;;;;;;;;;;5135844;27;20050;-78
2021/12/17 14:08:10;;;;;;;18.85;9.20;;;;;;;;;;5154315;27;20110;-77
2021/12/17 14:10:38;;;;;;;15.38;7.95;;;;;;;;;;5135809;27;20043;-76
2021/12/17 14:13:04;;;;;;;;;;;;;;;;;;5154293;27;20051;-77
2021/12/17 14:15:34;;;;;;;17.33;8.88;;;;;;;;;;5154229;27;19957;-77
2021/12/17 14:18:02;;;;;;;19.52;9.25;;;;;;;;;;5136412;27;20037;-77
2021/12/17 14:20:40;;;;;;;18.00;8.25;;;;;;;;;;5154394;27;20046;-77
2021/12/17 14:23:07;;;;;;;18.92;9.65;;;;;;;;;;5135583;27;20470;-77
2021/12/17 14:25:41;;;;;;;18.80;9.07;;;;;;;;;;5154706;27;20347;-77
2021/12/17 14:28:25;;;;;;;18.55;9.82;;;;;;;;;;5136065;27;20035;-78
2021/12/17 14:31:01;;;;;;;19.65;9.25;;;;;;;;;;5154077;27;20469;-78
2021/12/17 14:33:34;;;;;;;19.08;10.90;;;;;;;;;;5154092;27;20141;-70
2021/12/17 14:36:00;;;;;;;25.98;16.40;;;;;;;;;;5136358;27;20050;-78
2021/12/17 14:38:35;;;;;;;23.02;13.32;;;;;;;;;;5154871;27;20035;-78
2021/12/17 14:41:02;;;;;;;24.17;12.35;;;;;;;;;;5155478;27;20042;-78
2021/12/17 14:43:38;;;;;;;23.20;14.70;;;;;;;;;;5136641;27;20082;-73
2021/12/17 15:00:45;;;;;;;23.88;13.15;;;;;;;;;;5122598;27;20047;-78
2021/12/17 15:03:28;;;;;;;23.77;12.13;;;;;;;;;;5156341;27;20046;-79
2021/12/17 15:05:56;;;;;;;20.55;12.02;;;;;;;;;;5155396;27;20375;-77
2021/12/17 15:08:23;;;;;;;21.45;10.00;;;;;;;;;;5120562;27;20043;-76
2021/12/17 15:10:49;;;;;;;;;;;;;;;;;;5138054;27;20055;-76
2021/12/17 15:13:15;;;;;;;24.35;11.27;;;;;;;;;;5155957;27;19925;-77
2021/12/17 15:15:42;;;;;;;21.25;11.02;;;;;;;;;;5155217;27;20451;-76
2021/12/17 15:18:15;;;;;;;20.63;10.93;;;;;;;;;;5154536;27;20038;-76
2021/12/17 15:20:43;;;;;;;22.30;10.68;;;;;;;;;;5155089;27;20051;-76
2021/12/17 15:23:09;;;;;;;31.55;10.80;;;;;;;;;;5155043;27;20046;-76
2021/12/17 15:25:39;;;;;;;28.45;12.70;;;;;;;;;;5136430;27;20042;-75
2021/12/17 15:28:06;;;;;;;23.38;10.95;;;;;;;;;;5154989;27;20062;-74
2021/12/17 15:30:38;;;;;;;23.23;10.65;;;;;;;;;;5155730;27;20081;-77
2021/12/17 15:33:05;;;;;;;24.30;11.48;;;;;;;;;;5137492;27;20047;-76
2021/12/17 15:35:32;;;;;;;35.17;11.38;;;;;;;;;;5137023;27;20054;-75
2021/12/17 15:37:59;;;;;;;20.20;10.60;;;;;;;;;;5136622;27;20125;-77
2021/12/17 15:40:26;;;;;;;23.60;11.57;;;;;;;;;;5154541;27;20058;-76
2021/12/17 15:42:52;;;;;;;20.25;11.68;;;;;;;;;;5154318;27;20510;-77
2021/12/17 15:45:19;;;;;;;26.33;11.38;;;;;;;;;;5155225;27;20055;-78
2021/12/17 15:47:45;;;;;;;;;;;;;;;;;;5154504;27;20130;-72
2021/12/17 15:50:12;;;;;;;30.08;13.13;;;;;;;;;;5154135;27;19966;-75
2021/12/17 15:52:48;;;;;;;31.55;14.00;;;;;;;;;;5154174;27;20043;-75
2021/12/17 15:55:15;;;;;;;29.37;13.47;;;;;;;;;;5154619;27;20046;-74
2021/12/17 15:57:41;;;;;;;28.33;13.32;;;;;;;;;;5154208;27;20783;-75
2021/12/17 16:00:08;;;;;;;30.23;13.15;;;;;;;;;;5136799;27;20051;-72
2021/12/17 16:02:39;;;;;;;32.88;13.90;;;;;;;;;;5135909;27;20043;-74
2021/12/17 16:05:06;;;;;;;32.55;13.50;;;;;;;;;;5155385;27;20051;-75
2021/12/17 16:07:32;;;;;;;34.35;13.55;;;;;;;;;;5155205;27;20042;-74
2021/12/17 16:18:13;;;;;;;28.73;12.00;;;;;;;;;;5154979;27;20043;-73
2021/12/17 16:23:24;;;;;;;29.15;12.43;;;;;;;;;;5154992;27;20086;-78
2021/12/17 16:25:50;;;;;;;30.13;12.07;;;;;;;;;;5154414;27;20096;-80
2021/12/17 16:28:16;;;;;;;25.83;10.82;;;;;;;;;;5155828;27;20129;-77
2021/12/17 16:30:42;;;;;;;27.95;12.50;;;;;;;;;;5158032;27;20085;-76
2021/12/17 16:33:10;;;;;;;40.08;13.57;;;;;;;;;;5139629;27;20043;-76
2021/12/17 16:35:36;;;;;;;31.40;14.25;;;;;;;;;;5157766;27;20047;-75
2021/12/17 16:38:02;;;;;;;24.88;10.35;;;;;;;;;;5158601;27;20457;-72
2021/12/17 16:40:28;;;;;;;29.50;8.95;;;;;;;;;;5141075;27;20360;-72
2021/12/17 16:42:56;;;;;;;27.45;12.02;;;;;;;;;;5139439;27;20057;-72
2021/12/17 16:45:29;;;;;;;27.40;10.95;;;;;;;;;;5157621;27;20493;-72
2021/12/17 16:47:56;;;;;;;20.80;9.88;;;;;;;;;;5139380;27;20035;-73
2021/12/17 16:50:26;;;;;;;24.75;9.23;;;;;;;;;;5157643;27;20467;-73
2021/12/17 16:52:53;;;;;;;21.75;9.05;;;;;;;;;;5157921;27;20043;-72
2021/12/17 16:55:20;;;;;;;;;;;;;;;;;;5157807;27;20046;-71
2021/12/17 16:57:46;;;;;;;21.17;9.50;;;;;;;;;;5157316;27;20023;-72
2021/12/17 17:00:12;;;;;;;;;;;;;;;;;;5157941;27;20387;-71
2021/12/17 17:02:38;;;;;;;22.17;8.93;;;;;;;;;;5157605;27;19919;-71
2021/12/17 17:05:05;;;;;;;17.15;6.22;;;;;;;;;;5139347;27;20053;-71
2021/12/17 17:07:31;;;;;;;16.67;6.72;;;;;;;;;;5157257;27;20082;-70
2021/12/17 17:09:57;;;;;;;14.88;6.70;;;;;;;;;;5157315;27;20042;-70
2021/12/17 17:12:26;;;;;;;18.55;6.28;;;;;;;;;;5157269;27;20055;-72
2021/12/17 17:14:56;;;;;;;20.65;7.35;;;;;;;;;;5157696;27;20101;-71
2021/12/17 17:17:22;;;;;;;13.63;3.97;;;;;;;;;;5157599;27;20046;-72
2021/12/17 17:19:48;;;;;;;13.05;4.43;;;;;;;;;;5157205;27;20126;-72
2021/12/17 17:22:15;;;;;;;11.52;4.75;;;;;;;;;;5157040;27;20474;-70
2021/12/17 17:24:42;;;;;;;14.50;6.15;;;;;;;;;;5157057;27;20125;-70
2021/12/17 17:27:08;;;;;;;12.35;5.32;;;;;;;;;;5156750;27;20093;-70
2021/12/17 17:29:34;;;;;;;17.02;6.57;;;;;;;;;;5157420;27;20427;-71
2021/12/17 17:32:01;;;;;;;12.63;4.60;;;;;;;;;;5156772;27;20050;-74
2021/12/17 17:34:28;;;;;;;15.13;6.03;;;;;;;;;;5156935;27;20486;-75
2021/12/17 17:36:57;;;;;;;14.32;6.05;;;;;;;;;;5157052;27;20493;-73
2021/12/17 17:39:23;;;;;;;;;;;;;;;;;;5138361;27;20375;-72
2021/12/17 17:41:50;;;;;;;16.95;6.05;;;;;;;;;;5138049;27;19919;-68
2021/12/17 17:44:16;;;;;;;12.80;5.40;;;;;;;;;;5138275;27;20588;-73
2021/12/17 17:46:42;;;;;;;16.50;6.43;;;;;;;;;;5156123;27;20051;-74